Time;durP1;ratioP1;P1;durP2;ratioP2;P2;SDS_P1;SDS_P2;PMS_P1;PMS_P2;Temp;Humidity;BMP_temperature;BMP_pressure;BME280_temperature;BME280_humidity;BME280_pressure;Samples;Min_cycle;Max_cycle;Signal;HPM_P1;HPM_P2
2022/06/29 00:02:19;;;;;;;8.30;4.15;;;;;;;;;;5070697;28;20117;-64
2022/06/29 00:04:45;;;;;;;10.77;5.07;;;;;;;;;;5069413;28;20047;-64
2022/06/29 00:07:11;;;;;;;8.63;4.13;;;;;;;;;;5072849;28;20425;-64
2022/06/29 00:09:37;;;;;;;10.00;4.38;;;;;;;;;;5064525;28;20168;-63
2022/06/29 00:12:03;;;;;;;6.93;4.38;;;;;;;;;;5064365;28;20049;-63
2022/06/29 00:14:30;;;;;;;9.00;4.10;;;;;;;;;;5064234;28;20103;-64
2022/06/29 00:16:56;;;;;;;5.18;3.90;;;;;;;;;;5079309;28;20061;-63
2022/06/29 00:19:22;;;;;;;6.28;4.07;;;;;;;;;;5064180;28;20069;-64
2022/06/29 00:21:48;;;;;;;12.45;5.13;;;;;;;;;;5079401;28;20539;-64
2022/06/29 00:24:15;;;;;;;6.95;4.35;;;;;;;;;;5065417;28;20052;-64
2022/06/29 00:26:41;;;;;;;7.97;4.57;;;;;;;;;;5070118;28;20044;-63
2022/06/29 00:29:07;;;;;;;9.07;4.85;;;;;;;;;;5074392;28;20344;-63
2022/06/29 00:31:33;;;;;;;6.45;4.30;;;;;;;;;;5079030;28;20343;-63
2022/06/29 00:33:59;;;;;;;7.32;4.55;;;;;;;;;;5079458;28;20490;-63
2022/06/29 00:36:25;;;;;;;14.60;5.30;;;;;;;;;;5079462;28;20044;-63
2022/06/29 00:38:51;;;;;;;12.07;5.35;;;;;;;;;;5064163;28;20047;-64
2022/06/29 00:41:18;;;;;;;6.55;4.35;;;;;;;;;;5076298;28;20051;-64
2022/06/29 00:43:44;;;;;;;8.48;4.85;;;;;;;;;;5065431;28;20412;-63
2022/06/29 00:46:10;;;;;;;6.72;4.18;;;;;;;;;;5074555;28;20044;-63
2022/06/29 00:48:36;;;;;;;10.82;4.68;;;;;;;;;;5067160;28;20409;-64
2022/06/29 00:51:03;;;;;;;10.07;4.57;;;;;;;;;;5064008;28;20112;-64
2022/06/29 00:53:33;;;;;;;5.95;4.88;;;;;;;;;;5079379;28;20049;-64
2022/06/29 00:56:01;;;;;;;6.07;4.55;;;;;;;;;;5063906;28;20041;-64
2022/06/29 00:58:28;;;;;;;11.57;5.13;;;;;;;;;;5063599;28;20409;-64
2022/06/29 01:00:56;;;;;;;5.95;4.55;;;;;;;;;;5093620;28;20095;-63
2022/06/29 01:03:22;;;;;;;7.63;5.28;;;;;;;;;;5063214;28;20133;-64
2022/06/29 01:05:48;;;;;;;8.70;5.18;;;;;;;;;;5063869;28;20048;-64
2022/06/29 01:08:14;;;;;;;8.60;5.45;;;;;;;;;;5065346;28;20124;-64
2022/06/29 01:10:41;;;;;;;7.72;4.97;;;;;;;;;;5079640;28;20045;-63
2022/06/29 01:13:07;;;;;;;10.98;5.30;;;;;;;;;;5068927;28;20048;-63
2022/06/29 01:15:34;;;;;;;6.97;5.05;;;;;;;;;;5092398;28;20045;-63
2022/06/29 01:18:00;;;;;;;6.20;5.18;;;;;;;;;;5086582;28;20108;-63
2022/06/29 01:20:26;;;;;;;11.63;5.90;;;;;;;;;;5087312;28;20044;-64
2022/06/29 01:22:52;;;;;;;10.18;5.82;;;;;;;;;;5082812;28;20064;-64
2022/06/29 01:25:18;;;;;;;7.85;4.93;;;;;;;;;;5096858;28;20045;-64
2022/06/29 01:27:44;;;;;;;7.90;5.93;;;;;;;;;;5067046;28;20055;-63
2022/06/29 01:30:11;;;;;;;8.02;5.72;;;;;;;;;;5068200;28;20072;-63
2022/06/29 01:32:38;;;;;;;7.20;5.65;;;;;;;;;;5084847;28;20033;-64
2022/06/29 01:35:05;;;;;;;8.90;6.00;;;;;;;;;;5073944;28;20037;-64
2022/06/29 01:37:31;;;;;;;7.78;5.10;;;;;;;;;;5066618;28;20048;-64
2022/06/29 01:39:57;;;;;;;11.32;5.50;;;;;;;;;;5066987;28;20120;-63
2022/06/29 01:42:23;;;;;;;6.45;4.75;;;;;;;;;;5085712;28;20051;-63
2022/06/29 01:44:49;;;;;;;9.20;5.65;;;;;;;;;;5077385;28;20077;-63
2022/06/29 01:47:15;;;;;;;13.68;6.10;;;;;;;;;;5065949;28;20045;-64
2022/06/29 01:49:42;;;;;;;8.55;5.95;;;;;;;;;;5089367;28;20044;-64
2022/06/29 01:52:08;;;;;;;7.38;5.32;;;;;;;;;;5088693;28;20045;-64
2022/06/29 01:54:34;;;;;;;7.65;5.72;;;;;;;;;;5066736;28;20177;-64
2022/06/29 01:57:00;;;;;;;10.88;6.53;;;;;;;;;;5066522;28;20052;-63
2022/06/29 01:59:26;;;;;;;8.43;5.65;;;;;;;;;;5066253;28;20063;-64
2022/06/29 02:01:52;;;;;;;13.32;6.13;;;;;;;;;;5066013;28;20120;-64
2022/06/29 02:04:18;;;;;;;7.10;5.55;;;;;;;;;;5080283;28;20044;-63
2022/06/29 02:06:45;;;;;;;8.07;5.20;;;;;;;;;;5081905;28;20059;-64
2022/06/29 02:09:11;;;;;;;9.52;5.88;;;;;;;;;;5066432;28;20045;-64
2022/06/29 02:11:37;;;;;;;6.13;5.20;;;;;;;;;;5065936;28;20492;-64
2022/06/29 02:14:03;;;;;;;8.60;6.15;;;;;;;;;;5066510;28;20128;-63
2022/06/29 02:16:30;;;;;;;9.95;5.88;;;;;;;;;;5065568;28;20041;-64
2022/06/29 02:18:56;;;;;;;9.50;5.70;;;;;;;;;;5065999;28;20067;-64
2022/06/29 02:21:22;;;;;;;9.43;5.93;;;;;;;;;;5065951;28;20123;-64
2022/06/29 02:23:49;;;;;;;9.48;5.50;;;;;;;;;;5072817;28;20048;-63
2022/06/29 02:26:15;;;;;;;11.38;6.53;;;;;;;;;;5073084;28;20496;-64
2022/06/29 02:28:41;;;;;;;7.72;5.88;;;;;;;;;;5065909;28;20611;-64
2022/06/29 02:36:37;;;;;;;7.97;5.93;;;;;;;;;;5071057;28;20103;-64
2022/06/29 02:39:03;;;;;;;10.85;6.30;;;;;;;;;;5065757;28;20101;-64
2022/06/29 02:41:29;;;;;;;11.57;5.63;;;;;;;;;;5081020;28;20056;-64
2022/06/29 02:43:55;;;;;;;10.20;6.05;;;;;;;;;;5065620;28;20049;-63
2022/06/29 02:46:21;;;;;;;11.93;6.82;;;;;;;;;;5065870;28;20068;-64
2022/06/29 02:48:48;;;;;;;7.63;5.90;;;;;;;;;;5065032;28;20049;-64
2022/06/29 02:51:14;;;;;;;13.10;6.70;;;;;;;;;;5080917;28;20404;-63
2022/06/29 02:53:40;;;;;;;8.73;5.88;;;;;;;;;;5079256;28;20115;-64
2022/06/29 02:56:06;;;;;;;17.17;6.75;;;;;;;;;;5065648;28;20067;-64
2022/06/29 02:58:33;;;;;;;10.30;6.50;;;;;;;;;;5065310;28;20140;-64
2022/06/29 03:01:00;;;;;;;6.57;5.50;;;;;;;;;;5065119;28;20101;-63
2022/06/29 03:03:26;;;;;;;11.63;6.82;;;;;;;;;;5064822;28;20083;-64
2022/06/29 03:05:52;;;;;;;9.45;6.28;;;;;;;;;;5079131;28;20056;-63
2022/06/29 03:08:18;;;;;;;7.70;6.55;;;;;;;;;;5064964;28;20124;-64
2022/06/29 03:10:44;;;;;;;9.40;6.93;;;;;;;;;;5064948;28;20037;-63
2022/06/29 03:13:10;;;;;;;8.38;6.70;;;;;;;;;;5072094;28;20175;-63
2022/06/29 03:15:36;;;;;;;13.18;7.53;;;;;;;;;;5070423;28;20049;-63
2022/06/29 03:18:02;;;;;;;7.38;6.50;;;;;;;;;;5064385;28;20047;-64
2022/06/29 03:20:29;;;;;;;13.70;7.13;;;;;;;;;;5080435;28;20052;-63
2022/06/29 03:22:55;;;;;;;9.40;7.63;;;;;;;;;;5064521;28;20067;-64
2022/06/29 03:25:21;;;;;;;11.32;7.13;;;;;;;;;;5079008;28;20051;-64
2022/06/29 03:27:47;;;;;;;10.55;7.07;;;;;;;;;;5064961;28;20504;-63
2022/06/29 03:30:13;;;;;;;13.50;7.28;;;;;;;;;;5094128;28;20287;-64
2022/06/29 03:32:40;;;;;;;13.07;7.75;;;;;;;;;;5073923;28;20048;-64
2022/06/29 03:35:06;;;;;;;8.48;7.47;;;;;;;;;;5069266;28;20484;-64
2022/06/29 03:37:33;;;;;;;8.68;7.80;;;;;;;;;;5076616;28;20128;-64
2022/06/29 03:39:59;;;;;;;10.82;7.40;;;;;;;;;;5080046;28;20049;-63
2022/06/29 03:42:25;;;;;;;10.10;8.07;;;;;;;;;;5064731;28;20138;-63
2022/06/29 03:44:51;;;;;;;10.55;7.60;;;;;;;;;;5074928;28;20037;-64
2022/06/29 03:47:17;;;;;;;10.20;7.15;;;;;;;;;;5065639;28;20125;-63
2022/06/29 03:49:44;;;;;;;12.07;7.18;;;;;;;;;;5064733;28;20045;-63
2022/06/29 03:52:10;;;;;;;12.63;7.55;;;;;;;;;;5064332;28;20094;-63
2022/06/29 03:54:36;;;;;;;9.48;7.63;;;;;;;;;;5064628;28;20045;-63
2022/06/29 03:57:03;;;;;;;11.90;7.55;;;;;;;;;;5064439;28;20049;-63
2022/06/29 03:59:29;;;;;;;15.05;7.65;;;;;;;;;;5064368;28;20053;-63
2022/06/29 04:01:55;;;;;;;8.70;7.70;;;;;;;;;;5063985;28;20116;-64
2022/06/29 04:04:21;;;;;;;11.45;6.97;;;;;;;;;;5064227;28;20067;-63
2022/06/29 04:06:47;;;;;;;8.90;7.13;;;;;;;;;;5064335;28;20071;-64
2022/06/29 04:09:13;;;;;;;10.93;7.50;;;;;;;;;;5079764;28;20053;-64
2022/06/29 04:11:48;;;;;;;11.23;7.97;;;;;;;;;;5073049;28;20079;-64
2022/06/29 04:14:15;;;;;;;9.57;7.28;;;;;;;;;;5068342;28;20433;-63
2022/06/29 04:16:41;;;;;;;8.20;6.80;;;;;;;;;;5063863;28;20045;-64
2022/06/29 04:19:07;;;;;;;12.30;6.70;;;;;;;;;;5064158;28;20062;-64
2022/06/29 04:21:33;;;;;;;8.68;7.50;;;;;;;;;;5064104;28;20049;-63
2022/06/29 04:23:59;;;;;;;12.50;7.88;;;;;;;;;;5072670;28;20112;-63
2022/06/29 04:26:26;;;;;;;11.55;7.75;;;;;;;;;;5085033;28;20067;-63
2022/06/29 04:28:52;;;;;;;12.68;7.28;;;;;;;;;;5086395;28;20441;-64
2022/06/29 04:31:18;;;;;;;7.90;7.10;;;;;;;;;;5071537;28;20124;-63
2022/06/29 04:33:44;;;;;;;10.40;7.32;;;;;;;;;;5063480;28;20037;-64
2022/06/29 04:36:10;;;;;;;12.88;7.60;;;;;;;;;;5064216;28;20037;-64
2022/06/29 04:38:36;;;;;;;8.73;7.72;;;;;;;;;;5079411;28;20162;-64
2022/06/29 04:41:03;;;;;;;12.93;6.88;;;;;;;;;;5079685;28;20037;-64
2022/06/29 04:43:29;;;;;;;7.75;6.95;;;;;;;;;;5066170;28;20136;-64
2022/06/29 04:48:43;;;;;;;10.60;7.93;;;;;;;;;;5085454;28;20059;-64
2022/06/29 04:51:10;;;;;;;11.80;7.63;;;;;;;;;;5067754;28;20096;-65
2022/06/29 04:53:36;;;;;;;13.73;6.97;;;;;;;;;;5081474;28;20104;-65
2022/06/29 04:56:02;;;;;;;11.13;6.75;;;;;;;;;;5073953;28;20040;-65
2022/06/29 04:58:28;;;;;;;10.13;7.07;;;;;;;;;;5075214;28;20067;-65
2022/06/29 05:00:54;;;;;;;11.35;7.07;;;;;;;;;;5067607;28;20060;-65
2022/06/29 05:03:20;;;;;;;9.88;6.90;;;;;;;;;;5067173;28;20041;-65
2022/06/29 05:05:49;;;;;;;12.90;6.53;;;;;;;;;;5083101;28;20041;-65
2022/06/29 05:08:16;;;;;;;8.88;6.90;;;;;;;;;;5067443;28;20056;-64
2022/06/29 05:10:42;;;;;;;8.98;6.45;;;;;;;;;;5081640;28;20045;-65
2022/06/29 05:13:09;;;;;;;8.23;6.72;;;;;;;;;;5067543;28;20040;-65
2022/06/29 05:15:35;;;;;;;11.38;7.43;;;;;;;;;;5067429;28;20061;-65
2022/06/29 05:18:02;;;;;;;11.32;5.95;;;;;;;;;;5066684;28;20098;-65
2022/06/29 05:20:28;;;;;;;11.25;5.95;;;;;;;;;;5067253;28;20113;-65
2022/06/29 05:22:54;;;;;;;8.13;6.00;;;;;;;;;;5067124;28;20037;-65
2022/06/29 05:25:21;;;;;;;7.40;6.70;;;;;;;;;;5097015;28;20048;-65
2022/06/29 05:27:47;;;;;;;9.63;6.07;;;;;;;;;;5067153;28;20037;-64
2022/06/29 05:30:14;;;;;;;7.88;5.85;;;;;;;;;;5082456;28;20052;-65
2022/06/29 05:32:40;;;;;;;8.40;5.65;;;;;;;;;;5088747;28;20041;-64
2022/06/29 05:35:07;;;;;;;8.57;5.68;;;;;;;;;;5086601;28;20041;-64
2022/06/29 05:37:33;;;;;;;9.80;6.30;;;;;;;;;;5066927;28;20393;-64
2022/06/29 05:40:00;;;;;;;9.03;5.77;;;;;;;;;;5082125;28;20053;-64
2022/06/29 05:42:26;;;;;;;9.68;6.45;;;;;;;;;;5088598;28;20131;-64
2022/06/29 05:44:52;;;;;;;9.05;5.63;;;;;;;;;;5074626;28;20560;-65
2022/06/29 05:47:18;;;;;;;13.98;5.65;;;;;;;;;;5070649;28;20076;-65
2022/06/29 05:49:44;;;;;;;7.35;5.60;;;;;;;;;;5076483;28;20051;-65
2022/06/29 05:52:10;;;;;;;11.05;6.20;;;;;;;;;;5066534;28;20049;-64
2022/06/29 05:54:37;;;;;;;13.45;5.53;;;;;;;;;;5066250;28;20044;-65
2022/06/29 05:57:05;;;;;;;14.15;6.10;;;;;;;;;;5080529;28;20072;-64
2022/06/29 05:59:31;;;;;;;6.63;5.30;;;;;;;;;;5066468;28;20064;-65
2022/06/29 06:01:57;;;;;;;8.45;5.18;;;;;;;;;;5098323;28;20044;-65
2022/06/29 06:04:23;;;;;;;8.02;5.53;;;;;;;;;;5081845;28;20052;-65
2022/06/29 06:06:49;;;;;;;6.25;5.03;;;;;;;;;;5066442;28;20214;-65
2022/06/29 06:09:16;;;;;;;5.28;4.30;;;;;;;;;;5066346;28;20037;-64
2022/06/29 06:11:42;;;;;;;5.63;4.95;;;;;;;;;;5066252;28;20068;-65
2022/06/29 06:14:08;;;;;;;8.43;4.57;;;;;;;;;;5078912;28;20393;-65
2022/06/29 06:16:34;;;;;;;10.77;5.20;;;;;;;;;;5065823;28;20041;-65
2022/06/29 06:19:00;;;;;;;8.95;4.65;;;;;;;;;;5094931;28;20056;-65
2022/06/29 06:21:27;;;;;;;6.78;4.72;;;;;;;;;;5066625;28;20101;-65
2022/06/29 06:23:53;;;;;;;11.07;4.90;;;;;;;;;;5077613;28;20415;-65
2022/06/29 06:26:19;;;;;;;9.02;4.35;;;;;;;;;;5072448;28;20036;-65
2022/06/29 06:28:46;;;;;;;5.45;4.00;;;;;;;;;;5081331;28;20052;-65
2022/06/29 06:31:12;;;;;;;6.13;3.97;;;;;;;;;;5081494;28;20049;-65
2022/06/29 06:33:38;;;;;;;8.80;3.88;;;;;;;;;;5064981;28;20508;-65
2022/06/29 06:36:05;;;;;;;4.80;3.60;;;;;;;;;;5066002;28;20125;-65
2022/06/29 06:38:31;;;;;;;6.05;3.22;;;;;;;;;;5065406;28;20053;-65
2022/06/29 06:43:41;;;;;;;6.72;3.80;;;;;;;;;;5065720;28;20048;-65
2022/06/29 06:46:07;;;;;;;4.18;3.15;;;;;;;;;;5065713;28;20045;-65
2022/06/29 06:48:34;;;;;;;6.63;3.03;;;;;;;;;;5064901;28;20512;-64
2022/06/29 06:51:00;;;;;;;3.45;2.53;;;;;;;;;;5065472;28;20084;-64
2022/06/29 06:53:26;;;;;;;5.60;2.85;;;;;;;;;;5080713;28;20087;-64
2022/06/29 06:55:52;;;;;;;4.68;2.50;;;;;;;;;;5065364;28;20037;-64
2022/06/29 06:58:18;;;;;;;6.88;1.98;;;;;;;;;;5080801;28;20057;-64
2022/06/29 07:00:45;;;;;;;7.30;2.53;;;;;;;;;;5065248;28;20491;-64
2022/06/29 07:03:12;;;;;;;3.88;2.58;;;;;;;;;;5080591;28;20056;-64
2022/06/29 07:05:38;;;;;;;7.60;3.10;;;;;;;;;;5079876;28;20111;-64
2022/06/29 07:08:04;;;;;;;4.75;2.85;;;;;;;;;;5065076;28;20040;-64
2022/06/29 07:10:30;;;;;;;3.47;2.33;;;;;;;;;;5078416;28;20071;-64
2022/06/29 07:12:56;;;;;;;7.60;2.17;;;;;;;;;;5065548;28;20090;-64
2022/06/29 07:15:22;;;;;;;2.85;2.15;;;;;;;;;;5092073;28;20056;-64
2022/06/29 07:17:48;;;;;;;5.18;2.33;;;;;;;;;;5066804;28;20101;-64
2022/06/29 07:20:15;;;;;;;5.53;2.25;;;;;;;;;;5065070;28;20056;-64
2022/06/29 07:22:41;;;;;;;9.25;2.33;;;;;;;;;;5064682;28;20072;-64
2022/06/29 07:25:07;;;;;;;7.57;2.60;;;;;;;;;;5078786;28;20040;-64
2022/06/29 07:27:33;;;;;;;6.18;2.92;;;;;;;;;;5064929;28;20052;-64
2022/06/29 07:29:59;;;;;;;7.55;2.25;;;;;;;;;;5064901;28;20072;-64
2022/06/29 07:32:25;;;;;;;6.43;2.70;;;;;;;;;;5064146;28;20137;-64
2022/06/29 07:34:52;;;;;;;7.57;2.22;;;;;;;;;;5064756;28;20075;-64
2022/06/29 07:37:18;;;;;;;8.05;2.30;;;;;;;;;;5070516;28;20036;-64
2022/06/29 07:39:44;;;;;;;6.88;2.33;;;;;;;;;;5072594;28;20049;-64
2022/06/29 07:42:10;;;;;;;6.97;2.53;;;;;;;;;;5064533;28;20040;-64
2022/06/29 07:44:36;;;;;;;6.57;2.42;;;;;;;;;;5064698;28;20127;-64
2022/06/29 07:47:03;;;;;;;5.38;1.77;;;;;;;;;;5078211;28;20076;-64
2022/06/29 07:49:30;;;;;;;5.50;2.00;;;;;;;;;;5064592;28;20111;-64
2022/06/29 07:51:56;;;;;;;8.15;2.22;;;;;;;;;;5079745;28;20072;-64
2022/06/29 07:54:23;;;;;;;4.57;1.75;;;;;;;;;;5064626;28;20083;-64
2022/06/29 07:56:49;;;;;;;4.17;1.50;;;;;;;;;;5064335;28;20072;-64
2022/06/29 07:59:15;;;;;;;4.75;1.40;;;;;;;;;;5064072;28;20144;-64
2022/06/29 08:01:41;;;;;;;2.95;1.58;;;;;;;;;;5063696;28;20048;-64
2022/06/29 08:04:07;;;;;;;5.68;1.80;;;;;;;;;;5064284;28;20044;-64
2022/06/29 08:06:33;;;;;;;4.82;1.95;;;;;;;;;;5064435;28;20045;-64
2022/06/29 08:09:02;;;;;;;13.77;1.67;;;;;;;;;;5064250;28;20128;-64
2022/06/29 08:11:28;;;;;;;6.40;1.92;;;;;;;;;;5064401;28;20047;-64
2022/06/29 08:13:54;;;;;;;2.15;1.58;;;;;;;;;;5064374;28;20049;-63
2022/06/29 08:16:20;;;;;;;5.47;1.77;;;;;;;;;;5064872;28;20041;-63
2022/06/29 08:18:46;;;;;;;4.03;1.60;;;;;;;;;;5067768;28;20051;-64
2022/06/29 08:21:13;;;;;;;5.90;1.98;;;;;;;;;;5068353;28;20041;-64
2022/06/29 08:23:39;;;;;;;4.72;1.65;;;;;;;;;;5073683;28;20131;-64
2022/06/29 08:26:05;;;;;;;6.10;1.50;;;;;;;;;;5076751;28;20100;-64
2022/06/29 08:28:31;;;;;;;4.25;2.03;;;;;;;;;;5082227;28;20379;-64
2022/06/29 08:30:57;;;;;;;6.40;2.08;;;;;;;;;;5068322;28;20044;-64
2022/06/29 08:33:23;;;;;;;4.45;1.85;;;;;;;;;;5067530;28;20045;-64
2022/06/29 08:35:50;;;;;;;4.28;1.70;;;;;;;;;;5068230;28;20060;-64
2022/06/29 08:38:16;;;;;;;2.90;1.37;;;;;;;;;;5067768;28;20051;-64
2022/06/29 08:40:47;;;;;;;4.60;1.42;;;;;;;;;;5067900;28;20129;-64
2022/06/29 08:43:14;;;;;;;5.18;1.52;;;;;;;;;;5071267;28;20072;-64
2022/06/29 08:45:43;;;;;;;3.97;1.52;;;;;;;;;;5083444;28;20135;-64
2022/06/29 08:48:09;;;;;;;3.17;1.70;;;;;;;;;;5082891;28;20580;-64
2022/06/29 08:50:37;;;;;;;3.30;1.40;;;;;;;;;;5083346;28;20049;-64
2022/06/29 08:53:05;;;;;;;3.63;1.50;;;;;;;;;;5067523;28;20055;-64
2022/06/29 08:55:32;;;;;;;2.47;1.35;;;;;;;;;;5067735;28;20128;-64
2022/06/29 08:57:58;;;;;;;6.25;1.83;;;;;;;;;;5067362;28;20136;-64
2022/06/29 09:00:25;;;;;;;5.10;1.42;;;;;;;;;;5081823;28;20060;-63
2022/06/29 09:02:51;;;;;;;3.55;1.48;;;;;;;;;;5085796;28;20040;-64
2022/06/29 09:05:17;;;;;;;3.08;1.40;;;;;;;;;;5075191;28;20053;-64
2022/06/29 09:07:43;;;;;;;10.02;1.73;;;;;;;;;;5067337;28;20041;-64
2022/06/29 09:10:12;;;;;;;2.80;1.70;;;;;;;;;;5067659;28;20087;-64
2022/06/29 09:12:38;;;;;;;6.57;1.42;;;;;;;;;;5082594;28;20485;-64
2022/06/29 09:15:07;;;;;;;6.15;1.60;;;;;;;;;;5083185;28;20423;-63
2022/06/29 09:17:34;;;;;;;5.03;1.52;;;;;;;;;;5066788;28;20217;-63
2022/06/29 09:20:00;;;;;;;;;;;;;;;;;;5083191;28;20076;-63
2022/06/29 09:22:26;;;;;;;2.75;1.60;;;;;;;;;;5082557;28;19920;-63
2022/06/29 09:24:53;;;;;;;3.95;1.20;;;;;;;;;;5096772;28;20058;-63
2022/06/29 09:27:19;;;;;;;4.40;1.30;;;;;;;;;;5066857;28;20071;-64
2022/06/29 09:29:45;;;;;;;3.97;1.63;;;;;;;;;;5066312;28;20065;-63
2022/06/29 09:32:13;;;;;;;3.10;1.83;;;;;;;;;;5071991;28;20420;-64
2022/06/29 09:34:44;;;;;;;7.68;3.15;;;;;;;;;;5090261;28;20045;-63
2022/06/29 09:37:12;;;;;;;3.83;1.63;;;;;;;;;;5080849;28;20488;-64
2022/06/29 09:39:39;;;;;;;5.72;1.90;;;;;;;;;;5093652;28;20048;-63
2022/06/29 09:42:05;;;;;;;;;;;;;;;;;;5083846;28;20037;-64
2022/06/29 09:44:31;;;;;;;3.33;1.58;;;;;;;;;;5066930;28;19943;-63
2022/06/29 09:46:58;;;;;;;4.30;2.13;;;;;;;;;;5081405;28;20511;-63
2022/06/29 09:49:26;;;;;;;4.63;1.80;;;;;;;;;;5066638;28;20052;-63
2022/06/29 09:51:57;;;;;;;4.90;2.10;;;;;;;;;;5081845;28;20052;-63
2022/06/29 09:54:25;;;;;;;2.83;1.80;;;;;;;;;;5066763;28;20072;-63
2022/06/29 09:56:52;;;;;;;4.03;1.70;;;;;;;;;;5081883;28;20083;-63
2022/06/29 10:05:01;;;;;;;6.35;2.08;;;;;;;;;;5066433;28;20045;-63
2022/06/29 10:07:29;;;;;;;5.13;1.83;;;;;;;;;;5080351;28;20060;-63
2022/06/29 10:09:56;;;;;;;3.55;1.48;;;;;;;;;;5075108;28;20044;-63
2022/06/29 10:15:27;;;;;;;3.00;1.63;;;;;;;;;;5066335;28;20102;-63
2022/06/29 10:17:59;;;;;;;6.05;1.73;;;;;;;;;;5065576;28;20045;-63
2022/06/29 10:20:35;;;;;;;2.95;1.38;;;;;;;;;;5081517;28;20060;-63
2022/06/29 10:23:01;;;;;;;6.90;1.70;;;;;;;;;;5069941;28;20044;-63
2022/06/29 10:25:27;;;;;;;1.98;1.63;;;;;;;;;;5079735;28;20603;-64
2022/06/29 10:28:10;;;;;;;4.30;1.20;;;;;;;;;;5081325;28;20153;-62
2022/06/29 10:30:37;;;;;;;2.55;1.63;;;;;;;;;;5073046;28;20107;-62
2022/06/29 10:33:03;;;;;;;;;;;;;;;;;;5072927;28;20048;-62
2022/06/29 10:35:49;;;;;;;1.20;1.10;;;;;;;;;;5065768;28;19920;-63
2022/06/29 10:38:19;;;;;;;3.25;1.60;;;;;;;;;;5065442;28;20047;-64
2022/06/29 10:41:06;;;;;;;4.63;1.70;;;;;;;;;;5081201;28;20071;-62
2022/06/29 10:43:32;;;;;;;3.92;1.98;;;;;;;;;;5080866;28;20104;-62
2022/06/29 10:45:59;;;;;;;6.05;1.80;;;;;;;;;;5078234;28;20041;-62
2022/06/29 10:48:26;;;;;;;2.70;1.80;;;;;;;;;;5065375;28;20059;-64
2022/06/29 10:50:53;;;;;;;3.38;1.58;;;;;;;;;;5065554;28;20049;-62
2022/06/29 10:53:19;;;;;;;2.47;1.60;;;;;;;;;;5080954;28;20055;-65
2022/06/29 10:55:50;;;;;;;5.00;1.80;;;;;;;;;;5065526;28;20052;-64
2022/06/29 10:58:17;;;;;;;5.65;1.73;;;;;;;;;;5064958;28;20404;-64
2022/06/29 11:00:43;;;;;;;;;;;;;;;;;;5079945;28;20057;-65
2022/06/29 11:03:14;;;;;;;4.35;1.63;;;;;;;;;;5064803;28;19951;-65
2022/06/29 11:13:57;;;;;;;3.05;1.60;;;;;;;;;;5071730;28;20144;-65
2022/06/29 11:16:29;;;;;;;1.20;1.08;;;;;;;;;;5065069;28;20041;-65
2022/06/29 11:18:56;;;;;;;2.60;1.20;;;;;;;;;;5065042;28;20132;-65
2022/06/29 11:21:23;;;;;;;2.40;1.00;;;;;;;;;;5080604;28;20049;-65
2022/06/29 11:23:55;;;;;;;1.58;1.10;;;;;;;;;;5075712;28;20044;-63
2022/06/29 11:26:23;;;;;;;2.25;1.45;;;;;;;;;;5071193;28;20051;-63
2022/06/29 11:28:50;;;;;;;1.45;1.00;;;;;;;;;;5066633;28;20045;-63
2022/06/29 11:31:17;;;;;;;2.20;1.40;;;;;;;;;;5064941;28;20048;-63
2022/06/29 11:33:44;;;;;;;2.88;1.10;;;;;;;;;;5063967;28;20100;-63
2022/06/29 11:36:10;;;;;;;;;;;;;;;;;;5065340;28;20104;-63
2022/06/29 11:38:40;;;;;;;4.53;1.00;;;;;;;;;;5064370;28;19920;-63
2022/06/29 11:41:12;;;;;;;4.93;1.00;;;;;;;;;;5064605;28;20056;-63
2022/06/29 11:43:38;;;;;;;3.13;1.15;;;;;;;;;;5066321;28;20051;-63
2022/06/29 11:46:04;;;;;;;2.38;1.00;;;;;;;;;;5075411;28;20056;-63
2022/06/29 11:48:31;;;;;;;1.30;0.80;;;;;;;;;;5078104;28;20056;-63
2022/06/29 11:51:01;;;;;;;3.28;1.05;;;;;;;;;;5064477;28;20033;-63
2022/06/29 11:53:44;;;;;;;1.98;0.90;;;;;;;;;;5077493;28;20381;-63
2022/06/29 11:56:13;;;;;;;5.53;1.20;;;;;;;;;;5064553;28;20073;-63
2022/06/29 11:58:42;;;;;;;1.63;1.20;;;;;;;;;;5064022;28;20063;-63
2022/06/29 12:01:10;;;;;;;3.63;1.30;;;;;;;;;;5065906;28;20045;-63
2022/06/29 12:03:37;;;;;;;2.38;1.50;;;;;;;;;;5079309;28;20077;-63
2022/06/29 12:06:03;;;;;;;2.55;1.30;;;;;;;;;;5064161;28;20045;-63
2022/06/29 12:08:30;;;;;;;2.10;1.55;;;;;;;;;;5075020;28;20060;-63
2022/06/29 12:10:57;;;;;;;1.45;0.90;;;;;;;;;;5067497;28;20044;-64
2022/06/29 12:13:23;;;;;;;;;;;;;;;;;;5064763;28;20124;-63
2022/06/29 12:15:49;;;;;;;3.35;1.30;;;;;;;;;;5064367;28;19921;-63
2022/06/29 12:18:16;;;;;;;3.22;1.25;;;;;;;;;;5063927;28;20056;-63
2022/06/29 12:20:43;;;;;;;5.05;1.50;;;;;;;;;;5064484;28;20041;-63
2022/06/29 12:23:09;;;;;;;3.63;1.38;;;;;;;;;;5069417;28;20044;-63
2022/06/29 12:25:36;;;;;;;4.45;1.52;;;;;;;;;;5076873;28;20045;-63
2022/06/29 12:28:02;;;;;;;3.05;1.52;;;;;;;;;;5064056;28;20496;-63
2022/06/29 12:30:28;;;;;;;;;;;;;;;;;;5080020;28;20049;-63
2022/06/29 12:32:54;;;;;;;3.35;1.55;;;;;;;;;;5063861;28;19927;-63
2022/06/29 12:35:21;;;;;;;2.20;1.48;;;;;;;;;;5064049;28;20102;-63
2022/06/29 12:37:47;;;;;;;2.88;1.08;;;;;;;;;;5064067;28;20136;-63
2022/06/29 12:40:13;;;;;;;2.22;1.25;;;;;;;;;;5064188;28;20041;-63
2022/06/29 12:42:39;;;;;;;;;;;;;;;;;;5064499;28;20444;-63
2022/06/29 12:45:06;;;;;;;2.35;1.45;;;;;;;;;;5063844;28;19935;-63
2022/06/29 12:47:32;;;;;;;5.93;1.77;;;;;;;;;;5063688;28;20037;-63
2022/06/29 12:50:01;;;;;;;2.00;1.70;;;;;;;;;;5079584;28;20130;-63
2022/06/29 12:52:27;;;;;;;2.50;1.80;;;;;;;;;;5073597;28;20515;-63
2022/06/29 12:54:53;;;;;;;1.90;1.40;;;;;;;;;;5064003;28;20105;-63
2022/06/29 12:57:19;;;;;;;2.00;1.52;;;;;;;;;;5063823;28;20045;-63
2022/06/29 12:59:45;;;;;;;1.83;1.58;;;;;;;;;;5063728;28;20737;-64
2022/06/29 13:02:12;;;;;;;2.05;1.80;;;;;;;;;;5093044;28;20052;-64
2022/06/29 13:04:38;;;;;;;6.15;2.10;;;;;;;;;;5066167;28;20052;-64
2022/06/29 13:07:04;;;;;;;5.18;1.85;;;;;;;;;;5080503;28;20036;-64
2022/06/29 13:09:31;;;;;;;2.42;1.60;;;;;;;;;;5068440;28;20071;-64
2022/06/29 13:11:57;;;;;;;2.38;1.88;;;;;;;;;;5067413;28;20045;-64
2022/06/29 13:14:23;;;;;;;4.22;1.85;;;;;;;;;;5067342;28;20666;-64
2022/06/29 13:16:49;;;;;;;3.75;1.92;;;;;;;;;;5066996;28;20149;-64
2022/06/29 13:19:15;;;;;;;3.10;1.98;;;;;;;;;;5096813;28;20074;-64
2022/06/29 13:21:41;;;;;;;2.65;2.05;;;;;;;;;;5067273;28;20045;-64
2022/06/29 13:24:07;;;;;;;3.60;2.42;;;;;;;;;;5076805;28;20135;-64
2022/06/29 13:26:34;;;;;;;8.60;2.67;;;;;;;;;;5071496;28;20060;-64
2022/06/29 13:29:00;;;;;;;5.55;2.50;;;;;;;;;;5067252;28;20052;-64
2022/06/29 13:31:28;;;;;;;9.45;2.13;;;;;;;;;;5080809;28;20100;-64
2022/06/29 13:33:54;;;;;;;2.67;2.20;;;;;;;;;;5066686;28;20069;-64
2022/06/29 13:36:20;;;;;;;3.50;2.28;;;;;;;;;;5082472;28;20124;-64
2022/06/29 13:38:46;;;;;;;2.78;2.30;;;;;;;;;;5080800;28;20071;-64
2022/06/29 13:41:15;;;;;;;2.40;2.20;;;;;;;;;;5073876;28;20123;-64
2022/06/29 13:43:41;;;;;;;3.13;2.20;;;;;;;;;;5084435;28;20049;-64
2022/06/29 13:46:07;;;;;;;;;;;;;;;;;;5067470;28;20039;-64
2022/06/29 13:48:34;;;;;;;3.30;2.33;;;;;;;;;;5098646;28;19963;-64
2022/06/29 13:51:00;;;;;;;2.47;2.28;;;;;;;;;;5073545;28;20048;-64
2022/06/29 13:53:26;;;;;;;2.55;2.35;;;;;;;;;;5089431;28;20041;-64
2022/06/29 13:55:53;;;;;;;4.57;2.50;;;;;;;;;;5066494;28;20100;-64
2022/06/29 13:58:19;;;;;;;3.15;2.70;;;;;;;;;;5066303;28;20109;-64
2022/06/29 14:00:46;;;;;;;7.05;2.45;;;;;;;;;;5066678;28;20120;-64
2022/06/29 14:03:13;;;;;;;3.40;2.50;;;;;;;;;;5065918;28;20037;-64
2022/06/29 14:05:39;;;;;;;5.13;2.53;;;;;;;;;;5066434;28;20229;-64
2022/06/29 14:08:06;;;;;;;4.43;2.55;;;;;;;;;;5066398;28;20068;-64
2022/06/29 14:10:32;;;;;;;6.00;2.67;;;;;;;;;;5066479;28;20556;-64
2022/06/29 14:12:58;;;;;;;;;;;;;;;;;;5066638;28;20041;-64
2022/06/29 14:15:24;;;;;;;3.72;2.40;;;;;;;;;;5066004;28;20037;-64
2022/06/29 14:17:50;;;;;;;4.57;2.58;;;;;;;;;;5065687;28;20056;-64
2022/06/29 14:20:16;;;;;;;4.55;2.50;;;;;;;;;;5066364;28;20045;-64
2022/06/29 14:22:43;;;;;;;2.88;2.55;;;;;;;;;;5065810;28;20041;-64
2022/06/29 14:25:09;;;;;;;3.33;2.88;;;;;;;;;;5095757;28;20052;-64
2022/06/29 14:27:35;;;;;;;5.50;2.80;;;;;;;;;;5065866;28;20044;-64
2022/06/29 14:30:02;;;;;;;3.78;2.67;;;;;;;;;;5082102;28;20079;-64
2022/06/29 14:32:28;;;;;;;3.00;2.50;;;;;;;;;;5085337;28;20127;-64
2022/06/29 14:34:54;;;;;;;5.05;2.75;;;;;;;;;;5071586;28;20043;-64
2022/06/29 14:37:20;;;;;;;6.65;2.90;;;;;;;;;;5081342;28;20400;-64
2022/06/29 14:39:46;;;;;;;4.25;3.00;;;;;;;;;;5065559;28;20048;-64
2022/06/29 14:42:13;;;;;;;3.45;2.83;;;;;;;;;;5065788;28;20135;-64
2022/06/29 14:44:39;;;;;;;4.05;3.22;;;;;;;;;;5065843;28;20499;-64
2022/06/29 14:47:06;;;;;;;3.45;2.72;;;;;;;;;;5094659;28;20060;-64
2022/06/29 14:49:32;;;;;;;2.80;2.60;;;;;;;;;;5081208;28;20068;-63
2022/06/29 14:51:58;;;;;;;3.05;2.63;;;;;;;;;;5063872;28;20053;-64
2022/06/29 14:54:24;;;;;;;2.70;2.50;;;;;;;;;;5065656;28;20056;-64
2022/06/29 14:56:50;;;;;;;4.97;2.67;;;;;;;;;;5080906;28;20049;-63
2022/06/29 14:59:17;;;;;;;2.88;2.33;;;;;;;;;;5065255;28;20052;-63
2022/06/29 15:01:44;;;;;;;7.40;2.45;;;;;;;;;;5064632;28;20049;-64
2022/06/29 15:04:10;;;;;;;4.88;2.42;;;;;;;;;;5080889;28;20190;-64
2022/06/29 15:06:36;;;;;;;5.63;2.38;;;;;;;;;;5080592;28;20060;-64
2022/06/29 15:09:03;;;;;;;7.35;3.35;;;;;;;;;;5065130;28;20052;-64